Saint Elmo, Alabama
Current Conditions -  °F | °C
As of 12:56 AM on Thursday 18 Dec 2014 (Local Time) from KMOB Reporting Station
Clear Clear  
Wind Chill:   Ceiling: Unl
Heat Index:   Visibility: 10mi
Dew Point:   Wind: 0mph
Humidity: 93%   Direction: NA
Pressure: 30.19"   Gusts: NA
Location:  30.5°N, 88.25°W
Report Text: KMOB 180656Z AUTO 00000KT 10SM CLR 06/05 A3019 RMK AO2 SLP223 T00610050
Loading
Personal Weather Stations






























Interactive Weather Map New forecast layout! Learn more

10-Day Weather Forecast

Advertisements
Track Severe Weather on mobile